sensor_id;sensor_type;location;lat;lon;timestamp;P1;durP1;ratioP1;P2;durP2;ratioP2
31336;SDS011;22846;42.654;23.314;2023-11-19T00:01:27;3.70;;;2.47;;
31336;SDS011;22846;42.654;23.314;2023-11-19T00:03:53;2.95;;;2.30;;
31336;SDS011;22846;42.654;23.314;2023-11-19T00:06:18;3.25;;;2.75;;
31336;SDS011;22846;42.654;23.314;2023-11-19T00:08:44;3.08;;;2.35;;
31336;SDS011;22846;42.654;23.314;2023-11-19T00:11:09;4.45;;;2.60;;
31336;SDS011;22846;42.654;23.314;2023-11-19T00:13:34;4.18;;;2.60;;
31336;SDS011;22846;42.654;23.314;2023-11-19T00:16:00;2.85;;;2.20;;
31336;SDS011;22846;42.654;23.314;2023-11-19T00:18:25;3.10;;;2.45;;
31336;SDS011;22846;42.654;23.314;2023-11-19T00:20:51;3.53;;;2.75;;
31336;SDS011;22846;42.654;23.314;2023-11-19T00:23:16;3.88;;;2.65;;
31336;SDS011;22846;42.654;23.314;2023-11-19T00:25:42;2.67;;;2.20;;
31336;SDS011;22846;42.654;23.314;2023-11-19T00:28:07;3.35;;;2.53;;
31336;SDS011;22846;42.654;23.314;2023-11-19T00:30:33;3.53;;;2.35;;
31336;SDS011;22846;42.654;23.314;2023-11-19T00:32:58;3.72;;;2.40;;
31336;SDS011;22846;42.654;23.314;2023-11-19T00:35:23;2.63;;;2.13;;
31336;SDS011;22846;42.654;23.314;2023-11-19T00:37:49;2.83;;;2.20;;
31336;SDS011;22846;42.654;23.314;2023-11-19T00:40:15;2.30;;;1.90;;
31336;SDS011;22846;42.654;23.314;2023-11-19T00:42:43;2.88;;;2.33;;
31336;SDS011;22846;42.654;23.314;2023-11-19T00:45:08;2.50;;;2.15;;
31336;SDS011;22846;42.654;23.314;2023-11-19T00:47:35;2.97;;;2.05;;
31336;SDS011;22846;42.654;23.314;2023-11-19T00:50:01;2.17;;;1.98;;
31336;SDS011;22846;42.654;23.314;2023-11-19T00:52:27;2.58;;;1.85;;
31336;SDS011;22846;42.654;23.314;2023-11-19T00:54:53;2.45;;;1.98;;
31336;SDS011;22846;42.654;23.314;2023-11-19T00:57:18;2.30;;;2.00;;
31336;SDS011;22846;42.654;23.314;2023-11-19T00:59:44;2.35;;;1.80;;
31336;SDS011;22846;42.654;23.314;2023-11-19T01:02:10;2.33;;;1.90;;
31336;SDS011;22846;42.654;23.314;2023-11-19T01:04:36;2.70;;;2.00;;
31336;SDS011;22846;42.654;23.314;2023-11-19T01:07:04;2.33;;;1.75;;
31336;SDS011;22846;42.654;23.314;2023-11-19T01:09:31;2.35;;;1.75;;
31336;SDS011;22846;42.654;23.314;2023-11-19T01:11:58;2.17;;;1.80;;
31336;SDS011;22846;42.654;23.314;2023-11-19T01:14:25;1.67;;;1.58;;
31336;SDS011;22846;42.654;23.314;2023-11-19T01:16:51;2.00;;;1.80;;
31336;SDS011;22846;42.654;23.314;2023-11-19T01:19:18;2.08;;;1.50;;
31336;SDS011;22846;42.654;23.314;2023-11-19T01:21:44;2.50;;;1.65;;
31336;SDS011;22846;42.654;23.314;2023-11-19T01:24:09;1.70;;;1.52;;
31336;SDS011;22846;42.654;23.314;2023-11-19T01:26:37;2.58;;;1.90;;
31336;SDS011;22846;42.654;23.314;2023-11-19T01:29:02;2.30;;;1.77;;
31336;SDS011;22846;42.654;23.314;2023-11-19T01:31:29;1.73;;;1.48;;
31336;SDS011;22846;42.654;23.314;2023-11-19T01:33:56;2.42;;;1.67;;
31336;SDS011;22846;42.654;23.314;2023-11-19T01:36:22;2.80;;;1.90;;
31336;SDS011;22846;42.654;23.314;2023-11-19T01:38:48;2.45;;;1.73;;
31336;SDS011;22846;42.654;23.314;2023-11-19T01:41:13;1.98;;;1.50;;
31336;SDS011;22846;42.654;23.314;2023-11-19T01:43:40;2.08;;;1.48;;
31336;SDS011;22846;42.654;23.314;2023-11-19T01:46:12;2.00;;;1.60;;
31336;SDS011;22846;42.654;23.314;2023-11-19T01:48:40;1.73;;;1.40;;
31336;SDS011;22846;42.654;23.314;2023-11-19T01:51:08;1.70;;;1.50;;
31336;SDS011;22846;42.654;23.314;2023-11-19T01:53:34;1.95;;;1.60;;
31336;SDS011;22846;42.654;23.314;2023-11-19T01:56:02;2.72;;;1.75;;
31336;SDS011;22846;42.654;23.314;2023-11-19T01:58:28;1.67;;;1.38;;
31336;SDS011;22846;42.654;23.314;2023-11-19T02:00:55;1.88;;;1.55;;
31336;SDS011;22846;42.654;23.314;2023-11-19T02:03:21;2.17;;;1.48;;
31336;SDS011;22846;42.654;23.314;2023-11-19T02:05:50;1.77;;;1.52;;
31336;SDS011;22846;42.654;23.314;2023-11-19T02:08:15;1.48;;;1.30;;
31336;SDS011;22846;42.654;23.314;2023-11-19T02:10:41;1.92;;;1.52;;
31336;SDS011;22846;42.654;23.314;2023-11-19T02:13:08;1.50;;;1.40;;
31336;SDS011;22846;42.654;23.314;2023-11-19T02:15:35;2.10;;;1.58;;
31336;SDS011;22846;42.654;23.314;2023-11-19T02:20:52;1.90;;;1.70;;
31336;SDS011;22846;42.654;23.314;2023-11-19T02:23:18;1.88;;;1.50;;
31336;SDS011;22846;42.654;23.314;2023-11-19T02:25:57;1.90;;;1.30;;
31336;SDS011;22846;42.654;23.314;2023-11-19T02:28:24;2.60;;;1.40;;
31336;SDS011;22846;42.654;23.314;2023-11-19T02:30:50;1.40;;;1.20;;
31336;SDS011;22846;42.654;23.314;2023-11-19T02:33:15;1.40;;;1.20;;
31336;SDS011;22846;42.654;23.314;2023-11-19T02:35:41;2.30;;;1.40;;
31336;SDS011;22846;42.654;23.314;2023-11-19T02:38:06;1.38;;;1.27;;
31336;SDS011;22846;42.654;23.314;2023-11-19T02:40:32;1.30;;;1.20;;
31336;SDS011;22846;42.654;23.314;2023-11-19T02:42:58;1.30;;;1.20;;
31336;SDS011;22846;42.654;23.314;2023-11-19T02:45:23;1.63;;;1.27;;
31336;SDS011;22846;42.654;23.314;2023-11-19T02:47:50;2.80;;;1.60;;
31336;SDS011;22846;42.654;23.314;2023-11-19T02:50:16;1.40;;;1.30;;
31336;SDS011;22846;42.654;23.314;2023-11-19T02:52:49;1.63;;;1.20;;
31336;SDS011;22846;42.654;23.314;2023-11-19T02:55:16;1.15;;;1.05;;
31336;SDS011;22846;42.654;23.314;2023-11-19T02:57:43;1.70;;;1.20;;
31336;SDS011;22846;42.654;23.314;2023-11-19T03:00:20;1.92;;;1.27;;
31336;SDS011;22846;42.654;23.314;2023-11-19T03:02:53;1.27;;;1.10;;
31336;SDS011;22846;42.654;23.314;2023-11-19T03:05:25;1.73;;;1.10;;
31336;SDS011;22846;42.654;23.314;2023-11-19T03:07:52;2.03;;;1.20;;
31336;SDS011;22846;42.654;23.314;2023-11-19T03:10:17;1.48;;;1.15;;
31336;SDS011;22846;42.654;23.314;2023-11-19T03:12:44;1.20;;;1.10;;
31336;SDS011;22846;42.654;23.314;2023-11-19T03:15:10;1.20;;;1.10;;
31336;SDS011;22846;42.654;23.314;2023-11-19T03:17:39;1.35;;;1.10;;
31336;SDS011;22846;42.654;23.314;2023-11-19T03:20:06;1.05;;;0.93;;
31336;SDS011;22846;42.654;23.314;2023-11-19T03:22:39;1.15;;;1.00;;
31336;SDS011;22846;42.654;23.314;2023-11-19T03:25:06;1.20;;;1.02;;
31336;SDS011;22846;42.654;23.314;2023-11-19T03:27:33;1.90;;;1.30;;
31336;SDS011;22846;42.654;23.314;2023-11-19T03:30:04;1.52;;;1.10;;
31336;SDS011;22846;42.654;23.314;2023-11-19T03:32:31;1.30;;;1.20;;
31336;SDS011;22846;42.654;23.314;2023-11-19T03:34:57;1.20;;;1.10;;
31336;SDS011;22846;42.654;23.314;2023-11-19T03:37:23;1.10;;;1.00;;
31336;SDS011;22846;42.654;23.314;2023-11-19T03:39:49;1.27;;;1.08;;
31336;SDS011;22846;42.654;23.314;2023-11-19T03:42:14;1.48;;;1.10;;
31336;SDS011;22846;42.654;23.314;2023-11-19T03:44:40;1.40;;;1.00;;
31336;SDS011;22846;42.654;23.314;2023-11-19T03:47:05;1.20;;;1.10;;
31336;SDS011;22846;42.654;23.314;2023-11-19T03:49:31;1.23;;;1.13;;
31336;SDS011;22846;42.654;23.314;2023-11-19T03:51:57;0.85;;;0.85;;
31336;SDS011;22846;42.654;23.314;2023-11-19T03:54:23;1.27;;;1.08;;
31336;SDS011;22846;42.654;23.314;2023-11-19T03:56:48;1.15;;;1.02;;
31336;SDS011;22846;42.654;23.314;2023-11-19T03:59:14;1.15;;;0.95;;
31336;SDS011;22846;42.654;23.314;2023-11-19T04:01:40;1.00;;;0.90;;
31336;SDS011;22846;42.654;23.314;2023-11-19T04:04:06;1.00;;;0.90;;
31336;SDS011;22846;42.654;23.314;2023-11-19T04:06:32;1.50;;;1.17;;
31336;SDS011;22846;42.654;23.314;2023-11-19T04:08:57;1.33;;;1.10;;
31336;SDS011;22846;42.654;23.314;2023-11-19T04:11:22;1.15;;;1.00;;
31336;SDS011;22846;42.654;23.314;2023-11-19T04:13:48;1.10;;;0.95;;
31336;SDS011;22846;42.654;23.314;2023-11-19T04:16:13;1.10;;;0.98;;
31336;SDS011;22846;42.654;23.314;2023-11-19T04:18:39;1.20;;;1.00;;
31336;SDS011;22846;42.654;23.314;2023-11-19T04:21:06;1.05;;;0.95;;
31336;SDS011;22846;42.654;23.314;2023-11-19T04:23:34;1.30;;;1.00;;
31336;SDS011;22846;42.654;23.314;2023-11-19T04:26:03;0.80;;;0.80;;
31336;SDS011;22846;42.654;23.314;2023-11-19T04:28:30;1.13;;;0.90;;
31336;SDS011;22846;42.654;23.314;2023-11-19T04:30:55;1.10;;;1.00;;
31336;SDS011;22846;42.654;23.314;2023-11-19T04:33:21;0.90;;;0.80;;
31336;SDS011;22846;42.654;23.314;2023-11-19T04:35:46;0.90;;;0.80;;
31336;SDS011;22846;42.654;23.314;2023-11-19T04:38:12;0.85;;;0.75;;
31336;SDS011;22846;42.654;23.314;2023-11-19T04:40:37;1.20;;;0.80;;
31336;SDS011;22846;42.654;23.314;2023-11-19T04:43:02;1.10;;;0.90;;
31336;SDS011;22846;42.654;23.314;2023-11-19T04:45:28;0.70;;;0.70;;
31336;SDS011;22846;42.654;23.314;2023-11-19T04:47:53;1.00;;;0.90;;
31336;SDS011;22846;42.654;23.314;2023-11-19T04:50:19;0.90;;;0.90;;
31336;SDS011;22846;42.654;23.314;2023-11-19T04:52:44;1.42;;;0.90;;
31336;SDS011;22846;42.654;23.314;2023-11-19T04:55:10;1.10;;;0.80;;
31336;SDS011;22846;42.654;23.314;2023-11-19T04:57:39;1.05;;;0.95;;
31336;SDS011;22846;42.654;23.314;2023-11-19T05:00:05;1.17;;;1.08;;
31336;SDS011;22846;42.654;23.314;2023-11-19T05:02:32;1.17;;;0.95;;
31336;SDS011;22846;42.654;23.314;2023-11-19T05:04:58;0.98;;;0.90;;
31336;SDS011;22846;42.654;23.314;2023-11-19T05:07:25;0.95;;;0.85;;
31336;SDS011;22846;42.654;23.314;2023-11-19T05:09:51;1.23;;;1.00;;
31336;SDS011;22846;42.654;23.314;2023-11-19T05:12:17;1.05;;;0.80;;
31336;SDS011;22846;42.654;23.314;2023-11-19T05:14:42;0.98;;;0.90;;
31336;SDS011;22846;42.654;23.314;2023-11-19T05:17:14;1.30;;;0.77;;
31336;SDS011;22846;42.654;23.314;2023-11-19T05:19:39;1.00;;;0.90;;
31336;SDS011;22846;42.654;23.314;2023-11-19T05:22:06;0.73;;;0.73;;
31336;SDS011;22846;42.654;23.314;2023-11-19T05:24:32;0.85;;;0.80;;
31336;SDS011;22846;42.654;23.314;2023-11-19T05:26:58;1.42;;;0.90;;
31336;SDS011;22846;42.654;23.314;2023-11-19T05:29:23;1.10;;;0.90;;
31336;SDS011;22846;42.654;23.314;2023-11-19T05:31:50;1.00;;;0.90;;
31336;SDS011;22846;42.654;23.314;2023-11-19T05:34:16;0.98;;;0.82;;
31336;SDS011;22846;42.654;23.314;2023-11-19T05:36:41;0.82;;;0.77;;
31336;SDS011;22846;42.654;23.314;2023-11-19T05:39:07;1.10;;;1.00;;
31336;SDS011;22846;42.654;23.314;2023-11-19T05:41:32;0.80;;;0.80;;
31336;SDS011;22846;42.654;23.314;2023-11-19T05:43:57;1.02;;;0.80;;
31336;SDS011;22846;42.654;23.314;2023-11-19T05:46:23;1.08;;;0.98;;
31336;SDS011;22846;42.654;23.314;2023-11-19T05:48:50;0.80;;;0.80;;
31336;SDS011;22846;42.654;23.314;2023-11-19T05:51:16;1.00;;;0.90;;
31336;SDS011;22846;42.654;23.314;2023-11-19T05:53:41;1.40;;;0.82;;
31336;SDS011;22846;42.654;23.314;2023-11-19T05:56:08;0.75;;;0.75;;
31336;SDS011;22846;42.654;23.314;2023-11-19T05:58:34;0.70;;;0.70;;
31336;SDS011;22846;42.654;23.314;2023-11-19T06:01:00;1.10;;;1.00;;
31336;SDS011;22846;42.654;23.314;2023-11-19T06:03:27;0.82;;;0.80;;
31336;SDS011;22846;42.654;23.314;2023-11-19T06:05:53;1.13;;;0.82;;
31336;SDS011;22846;42.654;23.314;2023-11-19T06:08:19;0.80;;;0.70;;
31336;SDS011;22846;42.654;23.314;2023-11-19T06:10:45;0.70;;;0.68;;
31336;SDS011;22846;42.654;23.314;2023-11-19T06:13:11;0.70;;;0.70;;
31336;SDS011;22846;42.654;23.314;2023-11-19T06:15:40;0.70;;;0.70;;
31336;SDS011;22846;42.654;23.314;2023-11-19T06:18:06;0.95;;;0.88;;
31336;SDS011;22846;42.654;23.314;2023-11-19T06:20:32;0.65;;;0.65;;
31336;SDS011;22846;42.654;23.314;2023-11-19T06:22:58;1.05;;;0.73;;
31336;SDS011;22846;42.654;23.314;2023-11-19T06:25:24;0.88;;;0.80;;
31336;SDS011;22846;42.654;23.314;2023-11-19T06:27:50;1.02;;;0.90;;
31336;SDS011;22846;42.654;23.314;2023-11-19T06:30:16;0.80;;;0.80;;
31336;SDS011;22846;42.654;23.314;2023-11-19T06:32:42;1.10;;;1.00;;
31336;SDS011;22846;42.654;23.314;2023-11-19T06:35:08;1.05;;;0.90;;
31336;SDS011;22846;42.654;23.314;2023-11-19T06:37:34;1.15;;;0.80;;
31336;SDS011;22846;42.654;23.314;2023-11-19T06:39:59;0.90;;;0.90;;
31336;SDS011;22846;42.654;23.314;2023-11-19T06:42:25;1.05;;;0.80;;
31336;SDS011;22846;42.654;23.314;2023-11-19T06:44:50;1.15;;;0.90;;
31336;SDS011;22846;42.654;23.314;2023-11-19T06:47:16;1.08;;;0.98;;
31336;SDS011;22846;42.654;23.314;2023-11-19T06:49:45;1.27;;;0.80;;
31336;SDS011;22846;42.654;23.314;2023-11-19T06:52:10;1.13;;;1.02;;
31336;SDS011;22846;42.654;23.314;2023-11-19T06:54:36;1.00;;;0.90;;
31336;SDS011;22846;42.654;23.314;2023-11-19T06:57:03;0.90;;;0.70;;
31336;SDS011;22846;42.654;23.314;2023-11-19T06:59:30;1.20;;;1.00;;
31336;SDS011;22846;42.654;23.314;2023-11-19T07:01:55;1.00;;;0.90;;
31336;SDS011;22846;42.654;23.314;2023-11-19T07:04:21;1.15;;;1.00;;
31336;SDS011;22846;42.654;23.314;2023-11-19T07:06:47;1.23;;;1.00;;
31336;SDS011;22846;42.654;23.314;2023-11-19T07:09:13;1.13;;;1.02;;
31336;SDS011;22846;42.654;23.314;2023-11-19T07:11:39;1.17;;;1.00;;
31336;SDS011;22846;42.654;23.314;2023-11-19T07:14:05;0.88;;;0.75;;
31336;SDS011;22846;42.654;23.314;2023-11-19T07:16:34;1.30;;;1.00;;
31336;SDS011;22846;42.654;23.314;2023-11-19T07:19:02;1.17;;;0.80;;
31336;SDS011;22846;42.654;23.314;2023-11-19T07:21:28;1.15;;;0.90;;
31336;SDS011;22846;42.654;23.314;2023-11-19T07:23:54;1.02;;;0.90;;
31336;SDS011;22846;42.654;23.314;2023-11-19T07:26:20;1.08;;;0.98;;
31336;SDS011;22846;42.654;23.314;2023-11-19T07:28:45;1.20;;;0.90;;
31336;SDS011;22846;42.654;23.314;2023-11-19T07:31:11;0.90;;;0.90;;
31336;SDS011;22846;42.654;23.314;2023-11-19T07:33:39;1.52;;;1.00;;
31336;SDS011;22846;42.654;23.314;2023-11-19T07:36:07;1.13;;;0.90;;
31336;SDS011;22846;42.654;23.314;2023-11-19T07:38:33;2.25;;;1.00;;
31336;SDS011;22846;42.654;23.314;2023-11-19T07:40:58;1.60;;;1.10;;
31336;SDS011;22846;42.654;23.314;2023-11-19T07:43:23;1.08;;;0.85;;
31336;SDS011;22846;42.654;23.314;2023-11-19T07:45:49;1.20;;;1.00;;
31336;SDS011;22846;42.654;23.314;2023-11-19T07:48:15;2.58;;;1.08;;
31336;SDS011;22846;42.654;23.314;2023-11-19T07:50:40;1.48;;;1.23;;
31336;SDS011;22846;42.654;23.314;2023-11-19T07:53:06;1.25;;;0.98;;
31336;SDS011;22846;42.654;23.314;2023-11-19T07:55:32;1.08;;;0.85;;
31336;SDS011;22846;42.654;23.314;2023-11-19T07:57:58;1.00;;;0.93;;
31336;SDS011;22846;42.654;23.314;2023-11-19T08:00:24;1.65;;;1.02;;
31336;SDS011;22846;42.654;23.314;2023-11-19T08:02:49;1.65;;;0.98;;
31336;SDS011;22846;42.654;23.314;2023-11-19T08:05:14;1.13;;;1.00;;
31336;SDS011;22846;42.654;23.314;2023-11-19T08:07:40;1.58;;;1.00;;
31336;SDS011;22846;42.654;23.314;2023-11-19T08:10:06;1.45;;;0.80;;
31336;SDS011;22846;42.654;23.314;2023-11-19T08:12:34;1.52;;;1.20;;
31336;SDS011;22846;42.654;23.314;2023-11-19T08:15:01;1.27;;;0.90;;
31336;SDS011;22846;42.654;23.314;2023-11-19T08:17:27;1.80;;;1.00;;
31336;SDS011;22846;42.654;23.314;2023-11-19T08:19:53;1.45;;;1.08;;
31336;SDS011;22846;42.654;23.314;2023-11-19T08:22:18;1.15;;;1.02;;
31336;SDS011;22846;42.654;23.314;2023-11-19T08:24:44;1.67;;;1.00;;
31336;SDS011;22846;42.654;23.314;2023-11-19T08:27:09;1.52;;;1.10;;
31336;SDS011;22846;42.654;23.314;2023-11-19T08:29:35;1.58;;;1.33;;
31336;SDS011;22846;42.654;23.314;2023-11-19T08:32:00;2.65;;;1.05;;
31336;SDS011;22846;42.654;23.314;2023-11-19T08:34:29;1.77;;;1.30;;
31336;SDS011;22846;42.654;23.314;2023-11-19T08:36:55;1.63;;;1.10;;
31336;SDS011;22846;42.654;23.314;2023-11-19T08:39:20;1.27;;;1.15;;
31336;SDS011;22846;42.654;23.314;2023-11-19T08:41:49;1.30;;;0.93;;
31336;SDS011;22846;42.654;23.314;2023-11-19T08:44:15;1.35;;;1.10;;
31336;SDS011;22846;42.654;23.314;2023-11-19T08:46:50;1.50;;;1.17;;
31336;SDS011;22846;42.654;23.314;2023-11-19T08:49:16;1.65;;;1.10;;
31336;SDS011;22846;42.654;23.314;2023-11-19T08:51:42;1.80;;;1.10;;
31336;SDS011;22846;42.654;23.314;2023-11-19T08:54:08;1.77;;;1.10;;
31336;SDS011;22846;42.654;23.314;2023-11-19T08:56:33;1.13;;;1.02;;
31336;SDS011;22846;42.654;23.314;2023-11-19T08:59:00;1.80;;;1.30;;
31336;SDS011;22846;42.654;23.314;2023-11-19T09:01:26;1.02;;;0.90;;
31336;SDS011;22846;42.654;23.314;2023-11-19T09:03:51;1.67;;;1.20;;
31336;SDS011;22846;42.654;23.314;2023-11-19T09:06:17;1.60;;;1.10;;
31336;SDS011;22846;42.654;23.314;2023-11-19T09:08:42;1.40;;;1.10;;
31336;SDS011;22846;42.654;23.314;2023-11-19T09:11:08;1.55;;;1.10;;
31336;SDS011;22846;42.654;23.314;2023-11-19T09:13:34;1.52;;;1.27;;
31336;SDS011;22846;42.654;23.314;2023-11-19T09:16:00;1.33;;;1.20;;
31336;SDS011;22846;42.654;23.314;2023-11-19T09:18:28;1.40;;;1.27;;
31336;SDS011;22846;42.654;23.314;2023-11-19T09:20:57;2.67;;;1.10;;
31336;SDS011;22846;42.654;23.314;2023-11-19T09:23:23;4.90;;;1.42;;
31336;SDS011;22846;42.654;23.314;2023-11-19T09:25:50;1.88;;;1.30;;
31336;SDS011;22846;42.654;23.314;2023-11-19T09:28:16;3.78;;;1.40;;
31336;SDS011;22846;42.654;23.314;2023-11-19T09:30:41;1.55;;;1.25;;
31336;SDS011;22846;42.654;23.314;2023-11-19T09:33:06;1.88;;;1.25;;
31336;SDS011;22846;42.654;23.314;2023-11-19T09:35:32;3.03;;;1.23;;
31336;SDS011;22846;42.654;23.314;2023-11-19T09:37:58;4.95;;;1.50;;
31336;SDS011;22846;42.654;23.314;2023-11-19T09:40:24;4.88;;;1.48;;
31336;SDS011;22846;42.654;23.314;2023-11-19T09:42:49;7.38;;;1.30;;
31336;SDS011;22846;42.654;23.314;2023-11-19T09:45:16;3.17;;;1.50;;
31336;SDS011;22846;42.654;23.314;2023-11-19T09:47:46;4.32;;;1.50;;
31336;SDS011;22846;42.654;23.314;2023-11-19T09:50:17;6.32;;;1.90;;
31336;SDS011;22846;42.654;23.314;2023-11-19T09:52:44;2.92;;;1.52;;
31336;SDS011;22846;42.654;23.314;2023-11-19T09:55:11;2.88;;;1.58;;
31336;SDS011;22846;42.654;23.314;2023-11-19T09:57:40;2.30;;;1.23;;
31336;SDS011;22846;42.654;23.314;2023-11-19T10:00:09;3.50;;;1.55;;
31336;SDS011;22846;42.654;23.314;2023-11-19T10:02:36;5.13;;;1.55;;
31336;SDS011;22846;42.654;23.314;2023-11-19T10:05:04;4.03;;;1.48;;
31336;SDS011;22846;42.654;23.314;2023-11-19T10:07:31;4.00;;;1.70;;
31336;SDS011;22846;42.654;23.314;2023-11-19T10:10:01;5.38;;;1.33;;
31336;SDS011;22846;42.654;23.314;2023-11-19T10:12:29;2.85;;;1.30;;
31336;SDS011;22846;42.654;23.314;2023-11-19T10:14:56;3.83;;;1.40;;
31336;SDS011;22846;42.654;23.314;2023-11-19T10:17:32;3.10;;;1.70;;
31336;SDS011;22846;42.654;23.314;2023-11-19T10:19:59;5.00;;;1.92;;
31336;SDS011;22846;42.654;23.314;2023-11-19T10:22:24;6.05;;;4.30;;
31336;SDS011;22846;42.654;23.314;2023-11-19T10:24:51;20.98;;;14.93;;
31336;SDS011;22846;42.654;23.314;2023-11-19T10:27:17;28.15;;;20.23;;
31336;SDS011;22846;42.654;23.314;2023-11-19T10:29:47;22.63;;;15.73;;
31336;SDS011;22846;42.654;23.314;2023-11-19T10:32:13;19.23;;;13.38;;
31336;SDS011;22846;42.654;23.314;2023-11-19T10:34:42;21.75;;;12.05;;
31336;SDS011;22846;42.654;23.314;2023-11-19T10:37:08;13.30;;;10.90;;
31336;SDS011;22846;42.654;23.314;2023-11-19T10:40:08;14.65;;;11.10;;
31336;SDS011;22846;42.654;23.314;2023-11-19T10:42:30;14.25;;;11.05;;
31336;SDS011;22846;42.654;23.314;2023-11-19T10:44:55;15.50;;;10.48;;
31336;SDS011;22846;42.654;23.314;2023-11-19T10:47:21;16.05;;;10.45;;
31336;SDS011;22846;42.654;23.314;2023-11-19T10:49:48;12.25;;;9.80;;
31336;SDS011;22846;42.654;23.314;2023-11-19T10:52:16;14.15;;;10.07;;
31336;SDS011;22846;42.654;23.314;2023-11-19T10:54:44;13.75;;;9.45;;
31336;SDS011;22846;42.654;23.314;2023-11-19T10:57:14;13.85;;;9.40;;
31336;SDS011;22846;42.654;23.314;2023-11-19T10:59:45;14.88;;;9.07;;
31336;SDS011;22846;42.654;23.314;2023-11-19T11:02:12;15.75;;;9.30;;
31336;SDS011;22846;42.654;23.314;2023-11-19T11:04:44;15.27;;;8.98;;
31336;SDS011;22846;42.654;23.314;2023-11-19T11:07:12;14.95;;;8.85;;
31336;SDS011;22846;42.654;23.314;2023-11-19T11:09:40;32.28;;;22.58;;
31336;SDS011;22846;42.654;23.314;2023-11-19T11:12:06;32.60;;;22.65;;
31336;SDS011;22846;42.654;23.314;2023-11-19T11:14:35;22.27;;;14.23;;
31336;SDS011;22846;42.654;23.314;2023-11-19T11:17:03;21.17;;;12.63;;
31336;SDS011;22846;42.654;23.314;2023-11-19T11:19:32;12.98;;;8.52;;
31336;SDS011;22846;42.654;23.314;2023-11-19T11:21:59;11.57;;;8.90;;
31336;SDS011;22846;42.654;23.314;2023-11-19T11:24:41;11.88;;;8.40;;
31336;SDS011;22846;42.654;23.314;2023-11-19T11:30:29;27.05;;;5.38;;
31336;SDS011;22846;42.654;23.314;2023-11-19T11:38:27;17.45;;;7.70;;
31336;SDS011;22846;42.654;23.314;2023-11-19T11:43:49;10.05;;;6.65;;
31336;SDS011;22846;42.654;23.314;2023-11-19T11:49:03;12.73;;;7.40;;
31336;SDS011;22846;42.654;23.314;2023-11-19T11:54:11;13.07;;;6.60;;
31336;SDS011;22846;42.654;23.314;2023-11-19T12:02:09;12.30;;;5.97;;
31336;SDS011;22846;42.654;23.314;2023-11-19T12:04:36;12.18;;;6.47;;
31336;SDS011;22846;42.654;23.314;2023-11-19T12:09:31;28.00;;;6.80;;
31336;SDS011;22846;42.654;23.314;2023-11-19T12:20:02;13.00;;;6.30;;
31336;SDS011;22846;42.654;23.314;2023-11-19T12:22:40;21.13;;;5.75;;
31336;SDS011;22846;42.654;23.314;2023-11-19T12:25:07;9.50;;;5.90;;
31336;SDS011;22846;42.654;23.314;2023-11-19T12:27:37;13.77;;;5.97;;
31336;SDS011;22846;42.654;23.314;2023-11-19T12:30:05;12.73;;;5.75;;
31336;SDS011;22846;42.654;23.314;2023-11-19T12:33:07;12.77;;;5.95;;
31336;SDS011;22846;42.654;23.314;2023-11-19T12:35:24;13.23;;;5.53;;
31336;SDS011;22846;42.654;23.314;2023-11-19T12:37:50;11.43;;;5.75;;
31336;SDS011;22846;42.654;23.314;2023-11-19T12:40:19;12.00;;;5.72;;
31336;SDS011;22846;42.654;23.314;2023-11-19T12:42:49;13.57;;;4.97;;
31336;SDS011;22846;42.654;23.314;2023-11-19T12:45:16;11.20;;;5.05;;
31336;SDS011;22846;42.654;23.314;2023-11-19T12:47:43;8.93;;;4.90;;
31336;SDS011;22846;42.654;23.314;2023-11-19T12:50:09;9.60;;;4.82;;
31336;SDS011;22846;42.654;23.314;2023-11-19T12:52:37;8.40;;;4.38;;
31336;SDS011;22846;42.654;23.314;2023-11-19T12:57:51;8.30;;;3.90;;
31336;SDS011;22846;42.654;23.314;2023-11-19T13:00:20;8.15;;;4.05;;
31336;SDS011;22846;42.654;23.314;2023-11-19T13:02:51;7.10;;;3.60;;
31336;SDS011;22846;42.654;23.314;2023-11-19T13:05:24;6.45;;;4.20;;
31336;SDS011;22846;42.654;23.314;2023-11-19T13:07:51;7.82;;;4.30;;
31336;SDS011;22846;42.654;23.314;2023-11-19T13:10:23;8.23;;;3.67;;
31336;SDS011;22846;42.654;23.314;2023-11-19T13:13:07;9.52;;;4.32;;
31336;SDS011;22846;42.654;23.314;2023-11-19T13:15:33;20.70;;;4.35;;
31336;SDS011;22846;42.654;23.314;2023-11-19T13:17:59;10.90;;;3.75;;
31336;SDS011;22846;42.654;23.314;2023-11-19T13:20:25;23.20;;;4.75;;
31336;SDS011;22846;42.654;23.314;2023-11-19T13:22:58;9.27;;;3.63;;
31336;SDS011;22846;42.654;23.314;2023-11-19T13:25:25;15.10;;;7.68;;
31336;SDS011;22846;42.654;23.314;2023-11-19T13:27:54;34.88;;;21.77;;
31336;SDS011;22846;42.654;23.314;2023-11-19T13:30:20;15.48;;;6.55;;
31336;SDS011;22846;42.654;23.314;2023-11-19T13:32:47;15.93;;;7.30;;
31336;SDS011;22846;42.654;23.314;2023-11-19T13:35:13;10.00;;;6.40;;
31336;SDS011;22846;42.654;23.314;2023-11-19T13:37:39;10.30;;;5.90;;
31336;SDS011;22846;42.654;23.314;2023-11-19T13:40:06;12.35;;;6.43;;
31336;SDS011;22846;42.654;23.314;2023-11-19T13:42:32;8.27;;;5.47;;
31336;SDS011;22846;42.654;23.314;2023-11-19T13:44:58;11.85;;;6.55;;
31336;SDS011;22846;42.654;23.314;2023-11-19T13:47:23;11.77;;;6.72;;
31336;SDS011;22846;42.654;23.314;2023-11-19T13:49:49;12.80;;;7.22;;
31336;SDS011;22846;42.654;23.314;2023-11-19T13:52:15;14.45;;;6.72;;
31336;SDS011;22846;42.654;23.314;2023-11-19T13:54:40;12.32;;;6.20;;
31336;SDS011;22846;42.654;23.314;2023-11-19T13:57:06;12.52;;;6.32;;
31336;SDS011;22846;42.654;23.314;2023-11-19T13:59:31;13.40;;;6.28;;
31336;SDS011;22846;42.654;23.314;2023-11-19T14:02:00;14.60;;;6.93;;
31336;SDS011;22846;42.654;23.314;2023-11-19T14:04:25;14.68;;;6.80;;
31336;SDS011;22846;42.654;23.314;2023-11-19T14:06:51;15.10;;;4.95;;
31336;SDS011;22846;42.654;23.314;2023-11-19T14:09:17;9.35;;;3.70;;
31336;SDS011;22846;42.654;23.314;2023-11-19T14:11:42;15.10;;;5.03;;
31336;SDS011;22846;42.654;23.314;2023-11-19T14:14:08;15.70;;;5.00;;
31336;SDS011;22846;42.654;23.314;2023-11-19T14:16:34;11.35;;;5.07;;
31336;SDS011;22846;42.654;23.314;2023-11-19T14:18:59;10.82;;;5.10;;
31336;SDS011;22846;42.654;23.314;2023-11-19T14:21:25;9.15;;;4.47;;
31336;SDS011;22846;42.654;23.314;2023-11-19T14:23:51;10.35;;;4.50;;
31336;SDS011;22846;42.654;23.314;2023-11-19T14:26:17;11.15;;;5.80;;
31336;SDS011;22846;42.654;23.314;2023-11-19T14:28:43;32.75;;;21.73;;
31336;SDS011;22846;42.654;23.314;2023-11-19T14:31:08;46.70;;;30.20;;
31336;SDS011;22846;42.654;23.314;2023-11-19T14:33:33;51.15;;;33.10;;
31336;SDS011;22846;42.654;23.314;2023-11-19T14:36:00;45.58;;;30.88;;
31336;SDS011;22846;42.654;23.314;2023-11-19T14:38:26;43.22;;;26.13;;
31336;SDS011;22846;42.654;23.314;2023-11-19T14:40:52;34.75;;;22.65;;
31336;SDS011;22846;42.654;23.314;2023-11-19T14:43:17;30.45;;;20.67;;
31336;SDS011;22846;42.654;23.314;2023-11-19T14:45:42;31.20;;;20.05;;
31336;SDS011;22846;42.654;23.314;2023-11-19T14:48:08;20.42;;;12.55;;
31336;SDS011;22846;42.654;23.314;2023-11-19T14:50:35;29.95;;;17.98;;
31336;SDS011;22846;42.654;23.314;2023-11-19T14:53:01;29.25;;;18.27;;
31336;SDS011;22846;42.654;23.314;2023-11-19T14:55:27;27.75;;;17.13;;
31336;SDS011;22846;42.654;23.314;2023-11-19T14:57:53;26.08;;;16.55;;
31336;SDS011;22846;42.654;23.314;2023-11-19T15:00:18;25.20;;;16.80;;
31336;SDS011;22846;42.654;23.314;2023-11-19T15:02:44;25.15;;;16.02;;
31336;SDS011;22846;42.654;23.314;2023-11-19T15:05:10;39.65;;;27.38;;
31336;SDS011;22846;42.654;23.314;2023-11-19T15:07:36;64.38;;;42.85;;